createdAt,value
2019-05-25T00:02:14.775Z,62.89
2019-05-25T00:04:44.417Z,63.29
2019-05-25T00:07:14.035Z,63.02
2019-05-25T00:09:43.616Z,63.51
2019-05-25T00:12:13.260Z,63.42
2019-05-25T00:14:43.261Z,63.54
2019-05-25T00:17:12.812Z,63.18
2019-05-25T00:19:42.302Z,63.31
2019-05-25T00:22:11.885Z,63.23
2019-05-25T00:24:41.500Z,63.24
2019-05-25T00:27:11.005Z,62.79
2019-05-25T00:29:40.530Z,62.20
2019-05-25T00:32:10.164Z,62.18
2019-05-25T00:34:39.744Z,61.89
2019-05-25T00:37:09.526Z,61.83
2019-05-25T00:39:39.128Z,62.14
2019-05-25T00:42:08.635Z,61.95
2019-05-25T00:44:38.241Z,62.33
2019-05-25T00:47:07.835Z,62.84
2019-05-25T00:49:37.460Z,62.77
2019-05-25T00:52:07.048Z,63.10
2019-05-25T00:54:37.839Z,62.99
2019-05-25T00:57:07.395Z,63.92
2019-05-25T00:59:37.189Z,64.83
2019-05-25T01:02:11.179Z,64.92
2019-05-25T01:04:40.785Z,64.55
2019-05-25T01:07:10.418Z,64.80
2019-05-25T01:09:39.939Z,65.23
2019-05-25T01:12:09.497Z,65.18
2019-05-25T01:14:41.943Z,64.78
2019-05-25T01:17:11.525Z,64.12
2019-05-25T01:19:41.104Z,64.12
2019-05-25T01:22:10.627Z,64.01
2019-05-25T01:24:44.275Z,63.82
2019-05-25T01:27:11.379Z,63.51
2019-05-25T01:29:40.904Z,64.36
2019-05-25T01:32:10.482Z,63.82
2019-05-25T01:34:42.935Z,63.74
2019-05-25T01:37:12.448Z,63.86
2019-05-25T01:39:42.151Z,63.67
2019-05-25T01:42:11.707Z,63.75
2019-05-25T01:44:41.364Z,64.69
2019-05-25T01:47:10.965Z,65.30
2019-05-25T01:49:43.385Z,64.86
2019-05-25T01:52:15.655Z,65.30
2019-05-25T01:54:58.821Z,65.39
2019-05-25T01:57:16.971Z,65.06
2019-05-25T01:59:46.474Z,64.33
2019-05-25T02:02:16.089Z,64.63
2019-05-25T02:04:45.706Z,64.87
2019-05-25T02:07:15.240Z,64.62
2019-05-25T02:09:44.758Z,65.21
2019-05-25T02:12:14.305Z,64.93
2019-05-25T02:14:43.910Z,65.19
2019-05-25T02:17:13.418Z,64.51
2019-05-25T02:19:43.234Z,64.99
2019-05-25T02:22:12.775Z,64.78
2019-05-25T02:24:42.298Z,65.11
2019-05-25T02:27:11.940Z,64.57
2019-05-25T02:29:41.526Z,65.05
2019-05-25T02:32:12.620Z,64.91
2019-05-25T02:34:42.446Z,65.47
2019-05-25T02:37:12.054Z,65.50
2019-05-25T02:39:41.654Z,65.17
2019-05-25T02:42:12.506Z,64.87
2019-05-25T02:44:42.028Z,64.57
2019-05-25T02:47:11.688Z,64.95
2019-05-25T02:49:41.235Z,65.30
2019-05-25T02:52:10.780Z,65.30
2019-05-25T02:54:40.350Z,65.89
2019-05-25T02:57:09.955Z,65.78
2019-05-25T02:59:39.688Z,65.91
2019-05-25T03:02:09.250Z,66.09
2019-05-25T03:04:38.932Z,66.07
2019-05-25T03:07:08.502Z,66.03
2019-05-25T03:09:39.277Z,65.44
2019-05-25T03:12:09.367Z,65.21
2019-05-25T03:14:38.939Z,65.29
2019-05-25T03:17:08.661Z,65.73
2019-05-25T03:19:38.353Z,65.48
2019-05-25T03:22:07.951Z,65.31
2019-05-25T03:24:37.564Z,65.56
2019-05-25T03:27:07.236Z,65.34
2019-05-25T03:29:36.827Z,65.52
2019-05-25T03:32:06.419Z,65.50
2019-05-25T03:34:35.960Z,66.12
2019-05-25T03:37:05.462Z,67.17
2019-05-25T03:39:35.031Z,67.44
2019-05-25T03:42:04.766Z,67.56
2019-05-25T03:44:34.265Z,67.57
2019-05-25T03:47:03.915Z,67.13
2019-05-25T03:49:34.545Z,66.65
2019-05-25T03:52:04.142Z,67.61
2019-05-25T03:54:33.785Z,67.10
2019-05-25T03:57:03.877Z,67.53
2019-05-25T03:59:33.563Z,68.22
2019-05-25T04:02:03.277Z,67.80
2019-05-25T04:04:32.881Z,67.22
2019-05-25T04:07:02.454Z,66.99
2019-05-25T04:09:32.103Z,67.16
2019-05-25T04:12:02.031Z,67.76
2019-05-25T04:14:31.558Z,67.56
2019-05-25T04:17:01.080Z,67.28
2019-05-25T04:19:30.625Z,67.34
2019-05-25T04:22:00.197Z,66.58
2019-05-25T04:24:29.698Z,66.27
2019-05-25T04:26:59.240Z,66.51
2019-05-25T04:29:28.772Z,65.72
2019-05-25T04:31:58.276Z,65.70
2019-05-25T04:34:29.089Z,65.71
2019-05-25T04:36:58.680Z,65.50
2019-05-25T04:39:28.200Z,65.99
2019-05-25T04:41:57.811Z,65.76
2019-05-25T04:44:27.411Z,66.14
2019-05-25T04:46:56.923Z,66.43
2019-05-25T04:49:26.648Z,66.49
2019-05-25T04:51:56.164Z,66.98
2019-05-25T04:54:25.666Z,67.12
2019-05-25T04:56:56.912Z,66.97
2019-05-25T04:59:27.283Z,66.78
2019-05-25T05:01:56.813Z,67.03
2019-05-25T05:04:26.798Z,66.87
2019-05-25T05:06:56.298Z,66.65
2019-05-25T05:09:25.827Z,66.12
2019-05-25T05:11:55.386Z,66.21
2019-05-25T05:14:24.966Z,66.48
2019-05-25T05:16:54.777Z,66.14
2019-05-25T05:19:27.807Z,65.83
2019-05-25T05:21:57.325Z,65.26
2019-05-25T05:24:26.924Z,65.97
2019-05-25T05:26:56.642Z,66.09
2019-05-25T05:29:26.286Z,65.08
2019-05-25T05:31:55.880Z,65.11
2019-05-25T05:34:25.530Z,65.24
2019-05-25T05:36:55.680Z,64.50
2019-05-25T05:39:27.734Z,64.10
2019-05-25T05:41:59.628Z,64.39
2019-05-25T05:44:32.017Z,64.72
2019-05-25T05:47:03.154Z,65.67
2019-05-25T05:49:34.173Z,65.39
2019-05-25T05:52:03.903Z,64.89
2019-05-25T05:54:34.221Z,64.12
2019-05-25T05:57:12.429Z,63.85
2019-05-25T05:59:35.356Z,63.87
2019-05-25T06:02:05.366Z,63.42
2019-05-25T06:04:35.565Z,63.73
2019-05-25T06:07:05.263Z,64.02
2019-05-25T06:09:35.011Z,64.06
2019-05-25T06:12:05.864Z,64.42
2019-05-25T06:14:35.420Z,64.77
2019-05-25T06:17:05.212Z,64.46
2019-05-25T06:19:34.930Z,64.68
2019-05-25T06:22:04.972Z,64.80
2019-05-25T06:24:34.880Z,65.96
2019-05-25T06:27:04.610Z,66.42
2019-05-25T06:29:34.205Z,65.94
2019-05-25T06:32:04.245Z,66.28
2019-05-25T06:34:34.019Z,66.96
2019-05-25T06:37:03.559Z,67.32
2019-05-25T06:39:33.135Z,66.43
2019-05-25T06:42:02.866Z,66.03
2019-05-25T06:44:32.444Z,65.04
2019-05-25T06:47:02.023Z,64.94
2019-05-25T06:49:31.901Z,65.03
2019-05-25T06:52:01.440Z,64.49
2019-05-25T06:54:31.038Z,64.39
2019-05-25T06:57:01.206Z,63.87
2019-05-25T06:59:30.787Z,63.20
2019-05-25T07:02:00.365Z,62.06
2019-05-25T07:04:29.923Z,61.93
2019-05-25T07:06:59.433Z,61.88
2019-05-25T07:09:29.021Z,61.11
2019-05-25T07:11:58.547Z,61.24
2019-05-25T07:14:28.190Z,61.17
2019-05-25T07:16:57.702Z,61.54
2019-05-25T07:19:28.369Z,60.68
2019-05-25T07:21:57.940Z,60.17
2019-05-25T07:24:27.456Z,59.40
2019-05-25T07:26:57.009Z,58.76
2019-05-25T07:29:26.518Z,59.08
2019-05-25T07:31:56.192Z,58.19
2019-05-25T07:34:26.001Z,57.96
2019-05-25T07:36:55.577Z,57.74
2019-05-25T07:39:25.201Z,57.02
2019-05-25T07:41:54.804Z,56.98
2019-05-25T07:44:24.509Z,56.39
2019-05-25T07:46:54.077Z,56.28
2019-05-25T07:49:23.742Z,56.81
2019-05-25T07:51:53.338Z,56.34
2019-05-25T07:54:23.172Z,56.36
2019-05-25T07:56:52.800Z,55.86
2019-05-25T07:59:22.403Z,56.18
2019-05-25T08:01:51.902Z,55.72
2019-05-25T08:04:21.524Z,56.35
2019-05-25T08:06:51.911Z,55.89
2019-05-25T08:09:21.561Z,55.63
2019-05-25T08:11:51.673Z,56.35
2019-05-25T08:14:21.236Z,55.43
2019-05-25T08:16:50.885Z,54.83
2019-05-25T08:19:20.541Z,54.65
2019-05-25T08:21:50.152Z,54.59
2019-05-25T08:24:19.753Z,54.36
2019-05-25T08:26:49.764Z,55.19
2019-05-25T08:29:19.503Z,54.97
2019-05-25T08:31:49.043Z,55.20
2019-05-25T08:34:18.728Z,54.10
2019-05-25T08:36:48.257Z,53.59
2019-05-25T08:39:17.833Z,53.96
2019-05-25T08:41:47.620Z,53.91
2019-05-25T08:44:36.609Z,53.90
2019-05-25T08:47:06.522Z,52.99
2019-05-25T08:49:36.050Z,52.68
2019-05-25T08:52:05.924Z,52.30
2019-05-25T08:54:35.535Z,51.04
2019-05-25T08:57:05.299Z,49.88
2019-05-25T08:59:34.880Z,48.00
2019-05-25T09:02:04.668Z,47.23
2019-05-25T09:04:34.711Z,47.56
2019-05-25T09:07:04.513Z,46.81
2019-05-25T09:09:34.533Z,47.19
2019-05-25T09:12:04.263Z,47.84
2019-05-25T09:14:33.875Z,48.34
2019-05-25T09:17:03.527Z,48.50
2019-05-25T09:19:33.326Z,49.85
2019-05-25T09:22:03.953Z,49.74
2019-05-25T09:24:33.832Z,50.21
2019-05-25T09:27:03.473Z,50.25
2019-05-25T09:29:33.158Z,50.20
2019-05-25T09:32:02.874Z,50.68
2019-05-25T09:34:32.417Z,50.38
2019-05-25T09:37:01.900Z,50.19
2019-05-25T09:39:31.943Z,49.90
2019-05-25T09:42:01.816Z,49.87
2019-05-25T09:44:31.362Z,49.25
2019-05-25T09:47:00.907Z,48.61
2019-05-25T09:49:30.484Z,48.11
2019-05-25T09:51:59.983Z,48.05
2019-05-25T09:54:29.755Z,47.70
2019-05-25T09:56:59.280Z,47.62
2019-05-25T09:59:28.773Z,47.42
2019-05-25T10:01:58.317Z,46.64
2019-05-25T10:04:27.876Z,46.42
2019-05-25T10:06:57.500Z,46.46
2019-05-25T10:09:46.490Z,46.17
2019-05-25T10:12:16.462Z,47.26
2019-05-25T10:14:46.222Z,47.17
2019-05-25T10:17:15.759Z,46.91
2019-05-25T10:19:45.569Z,46.50
2019-05-25T10:22:15.270Z,45.76
2019-05-25T10:24:44.887Z,45.28
2019-05-25T10:27:14.463Z,44.75
2019-05-25T10:29:44.067Z,43.02
2019-05-25T10:32:14.025Z,42.96
2019-05-25T10:34:43.679Z,42.51
2019-05-25T10:37:13.220Z,43.21
2019-05-25T10:39:42.856Z,44.36
2019-05-25T10:42:12.443Z,45.91
2019-05-25T10:44:41.963Z,45.91
2019-05-25T10:47:11.503Z,45.45
2019-05-25T10:49:41.023Z,45.67
2019-05-25T10:52:10.544Z,44.99
2019-05-25T10:54:40.622Z,45.19
2019-05-25T10:57:13.116Z,44.62
2019-05-25T10:59:52.367Z,44.24
2019-05-25T11:02:12.705Z,43.99
2019-05-25T11:04:42.645Z,44.09
2019-05-25T11:07:12.150Z,45.74
2019-05-25T11:09:42.018Z,45.81
2019-05-25T11:12:11.708Z,44.28
2019-05-25T11:14:41.222Z,42.98
2019-05-25T11:17:10.879Z,43.52
2019-05-25T11:19:40.605Z,44.27
2019-05-25T11:22:12.487Z,43.01
2019-05-25T11:24:42.138Z,41.69
2019-05-25T11:27:11.808Z,41.61
2019-05-25T11:29:41.344Z,44.22
2019-05-25T11:32:11.258Z,41.95
2019-05-25T11:34:40.782Z,41.25
2019-05-25T11:37:10.952Z,40.38
2019-05-25T11:39:40.573Z,41.20
2019-05-25T11:42:10.212Z,40.68
2019-05-25T11:44:42.853Z,42.70
2019-05-25T11:47:13.105Z,43.48
2019-05-25T11:49:42.692Z,43.47
2019-05-25T11:52:12.375Z,43.52
2019-05-25T11:54:42.048Z,43.30
2019-05-25T11:57:11.698Z,43.54
2019-05-25T11:59:41.355Z,43.46
2019-05-25T12:02:11.075Z,42.42
2019-05-25T12:04:42.000Z,42.45
2019-05-25T12:07:12.127Z,43.13
2019-05-25T12:09:42.340Z,44.12
2019-05-25T12:12:12.074Z,47.08
2019-05-25T12:14:41.590Z,47.83
2019-05-25T12:17:11.325Z,49.52
2019-05-25T12:19:41.246Z,48.60
2019-05-25T12:22:10.906Z,48.72
2019-05-25T12:24:40.740Z,48.80
2019-05-25T12:27:10.405Z,48.43
2019-05-25T12:29:40.066Z,47.74
2019-05-25T12:32:09.850Z,47.22
2019-05-25T12:34:58.847Z,46.67
2019-05-25T12:37:28.508Z,45.98
2019-05-25T12:39:58.081Z,45.82
2019-05-25T12:42:27.684Z,44.76
2019-05-25T12:44:57.377Z,44.51
2019-05-25T12:47:27.039Z,44.95
2019-05-25T12:49:56.636Z,44.97
2019-05-25T12:52:26.547Z,45.01
2019-05-25T12:54:56.208Z,44.17
2019-05-25T12:57:26.080Z,44.10
2019-05-25T12:59:55.706Z,43.84
2019-05-25T13:02:25.285Z,43.41
2019-05-25T13:04:54.805Z,43.13
2019-05-25T13:07:24.438Z,43.09
2019-05-25T13:09:55.803Z,42.84
2019-05-25T13:12:25.519Z,42.71
2019-05-25T13:14:55.802Z,43.73
2019-05-25T13:17:25.346Z,44.23
2019-05-25T13:19:55.004Z,44.57
2019-05-25T13:22:24.581Z,43.78
2019-05-25T13:24:54.189Z,43.48
2019-05-25T13:27:23.855Z,43.21
2019-05-25T13:29:53.581Z,43.04
2019-05-25T13:32:23.171Z,43.55
2019-05-25T13:34:52.851Z,44.27
2019-05-25T13:37:22.815Z,42.46
2019-05-25T13:39:55.468Z,42.05
2019-05-25T13:42:25.140Z,41.14
2019-05-25T13:44:54.800Z,41.23
2019-05-25T13:47:24.459Z,41.54
2019-05-25T13:49:54.244Z,41.02
2019-05-25T13:52:24.309Z,41.85
2019-05-25T13:54:53.933Z,42.06
2019-05-25T13:57:23.736Z,42.98
2019-05-25T13:59:53.578Z,43.33
2019-05-25T14:02:23.442Z,43.91
2019-05-25T14:04:53.798Z,44.18
2019-05-25T14:07:23.433Z,43.57
2019-05-25T14:09:53.144Z,43.37
2019-05-25T14:12:23.510Z,42.65
2019-05-25T14:14:53.638Z,41.41
2019-05-25T14:17:23.393Z,40.89
2019-05-25T14:19:53.061Z,41.72
2019-05-25T14:22:22.768Z,41.22
2019-05-25T14:24:52.402Z,41.43
2019-05-25T14:27:22.209Z,41.21
2019-05-25T14:29:52.007Z,42.80
2019-05-25T14:32:21.747Z,43.50
2019-05-25T14:34:51.469Z,43.79
2019-05-25T14:37:21.373Z,43.72
2019-05-25T14:39:51.038Z,43.81
2019-05-25T14:42:20.804Z,43.82
2019-05-25T14:44:50.542Z,43.73
2019-05-25T14:47:21.465Z,43.99
2019-05-25T14:49:51.109Z,44.47
2019-05-25T14:52:20.836Z,44.25
2019-05-25T14:54:50.427Z,44.81
2019-05-25T14:57:20.369Z,44.96
2019-05-25T14:59:50.087Z,44.33
2019-05-25T15:02:19.741Z,44.33
2019-05-25T15:04:49.476Z,44.94
2019-05-25T15:07:19.331Z,44.86
2019-05-25T15:09:49.029Z,45.06
2019-05-25T15:12:20.468Z,45.06
2019-05-25T15:14:52.500Z,45.13
2019-05-25T15:17:22.137Z,47.14
2019-05-25T15:19:51.874Z,48.33
2019-05-25T15:22:21.492Z,49.28
2019-05-25T15:24:51.220Z,49.70
2019-05-25T15:27:20.997Z,50.07
2019-05-25T15:29:55.228Z,50.30
2019-05-25T15:32:28.000Z,50.15
2019-05-25T15:34:57.891Z,49.58
2019-05-25T15:37:27.534Z,49.25
2019-05-25T15:39:57.211Z,48.98
2019-05-25T15:42:26.876Z,48.62
2019-05-25T15:44:56.484Z,49.29
2019-05-25T15:47:45.663Z,49.31
2019-05-25T15:50:17.169Z,49.04
2019-05-25T15:52:46.820Z,49.30
2019-05-25T15:55:17.197Z,50.00
2019-05-25T15:57:46.776Z,49.93
2019-05-25T16:00:17.336Z,50.11
2019-05-25T16:02:47.214Z,50.66
2019-05-25T16:05:18.071Z,50.59
2019-05-25T16:07:51.505Z,50.97
2019-05-25T16:10:24.571Z,50.40
2019-05-25T16:12:53.869Z,50.44
2019-05-25T16:15:29.687Z,50.84
2019-05-25T16:17:59.528Z,51.58
2019-05-25T16:20:29.169Z,51.16
2019-05-25T16:22:58.729Z,50.99
2019-05-25T16:25:28.558Z,50.73
2019-05-25T16:27:58.064Z,50.84
2019-05-25T16:30:31.341Z,50.42
2019-05-25T16:35:31.682Z,50.26
2019-05-25T16:38:01.779Z,50.30
2019-05-25T16:38:21.036Z,50.23
2019-05-25T16:40:31.605Z,50.26
2019-05-25T16:43:01.943Z,50.23
2019-05-25T16:45:32.382Z,51.10
2019-05-25T16:48:01.910Z,51.17
2019-05-25T16:50:31.637Z,51.05
2019-05-25T16:53:02.822Z,51.06
2019-05-25T16:55:34.041Z,51.25
2019-05-25T16:58:03.623Z,51.86
2019-05-25T17:00:36.545Z,52.58
2019-05-25T17:03:06.205Z,51.74
2019-05-25T17:05:37.649Z,51.34
2019-05-25T17:08:07.307Z,50.97
2019-05-25T17:10:36.888Z,51.07
2019-05-25T17:13:06.576Z,51.12
2019-05-25T17:15:39.792Z,50.91
2019-05-25T17:18:09.446Z,50.83
2019-05-25T17:20:39.251Z,51.62
2019-05-25T17:23:08.912Z,52.07
2019-05-25T17:25:38.479Z,51.66
2019-05-25T17:28:08.220Z,51.61
2019-05-25T17:30:48.788Z,51.72
2019-05-25T17:33:18.391Z,51.26
2019-05-25T17:35:48.140Z,51.40
2019-05-25T17:38:17.821Z,51.87
2019-05-25T17:40:47.759Z,51.39
2019-05-25T17:43:17.433Z,51.12
2019-05-25T17:45:47.154Z,51.29
2019-05-25T17:48:18.438Z,51.08
2019-05-25T17:50:48.332Z,52.23
2019-05-25T17:53:17.935Z,51.39
2019-05-25T17:55:47.588Z,51.31
2019-05-25T17:58:17.895Z,51.62
2019-05-25T18:00:49.770Z,51.58
2019-05-25T18:03:19.598Z,52.34
2019-05-25T18:05:51.363Z,52.13
2019-05-25T18:08:21.784Z,52.27
2019-05-25T18:10:54.014Z,52.94
2019-05-25T18:13:24.322Z,52.30
2019-05-25T18:15:53.916Z,52.43
2019-05-25T18:18:23.748Z,52.57
2019-05-25T18:20:53.779Z,52.51
2019-05-25T18:23:23.438Z,53.00
2019-05-25T18:25:53.101Z,53.32
2019-05-25T18:28:23.171Z,53.40
2019-05-25T18:30:52.771Z,53.03
2019-05-25T18:33:22.688Z,52.97
2019-05-25T18:35:52.631Z,53.22
2019-05-25T18:38:22.387Z,53.03
2019-05-25T18:40:52.018Z,53.03
2019-05-25T18:43:22.294Z,53.17
2019-05-25T18:45:51.835Z,53.20
2019-05-25T18:48:21.438Z,52.83
2019-05-25T18:50:51.289Z,52.54
2019-05-25T18:53:20.888Z,52.82
2019-05-25T18:55:50.455Z,53.38
2019-05-25T18:58:20.094Z,53.17
2019-05-25T19:00:49.838Z,53.49
2019-05-25T19:03:19.385Z,53.93
2019-05-25T19:05:49.540Z,54.65
2019-05-25T19:08:19.325Z,54.31
2019-05-25T19:10:49.069Z,55.11
2019-05-25T19:13:18.873Z,55.27
2019-05-25T19:15:48.587Z,55.24
2019-05-25T19:18:19.784Z,55.54
2019-05-25T19:20:49.422Z,55.46
2019-05-25T19:23:19.018Z,55.82
2019-05-25T19:25:48.642Z,56.40
2019-05-25T19:28:20.716Z,56.09
2019-05-25T19:30:50.504Z,56.56
2019-05-25T19:33:20.112Z,56.11
2019-05-25T19:35:49.953Z,56.19
2019-05-25T19:38:19.593Z,56.24
2019-05-25T19:40:52.285Z,56.22
2019-05-25T19:43:23.696Z,56.67
2019-05-25T19:45:53.590Z,56.76
2019-05-25T19:48:23.200Z,57.13
2019-05-25T19:50:56.429Z,57.14
2019-05-25T19:53:26.337Z,57.64
2019-05-25T19:55:55.914Z,57.84
2019-05-25T19:58:27.001Z,57.95
2019-05-25T20:00:56.782Z,57.99
2019-05-25T20:03:26.406Z,58.19
2019-05-25T20:05:59.169Z,57.78
2019-05-25T20:08:29.140Z,58.92
2019-05-25T20:11:01.113Z,58.73
2019-05-25T20:13:33.527Z,58.51
2019-05-25T20:16:04.023Z,58.69
2019-05-25T20:18:33.718Z,59.09
2019-05-25T20:21:03.484Z,59.30
2019-05-25T20:23:52.437Z,59.53
2019-05-25T20:26:22.053Z,59.20
2019-05-25T20:28:51.655Z,59.44
2019-05-25T20:31:21.175Z,59.90
2019-05-25T20:33:52.891Z,60.94
2019-05-25T20:36:22.553Z,61.66
2019-05-25T20:38:52.177Z,61.67
2019-05-25T20:41:23.352Z,62.90
2019-05-25T20:43:53.020Z,62.86
2019-05-25T20:46:22.635Z,63.95
2019-05-25T20:48:52.842Z,63.88
2019-05-25T20:51:22.386Z,63.54
2019-05-25T20:53:51.976Z,62.99
2019-05-25T20:56:21.645Z,63.13
2019-05-25T20:58:51.225Z,63.27
2019-05-25T21:01:20.798Z,63.16
2019-05-25T21:03:50.423Z,62.61
2019-05-25T21:06:20.085Z,62.83
2019-05-25T21:08:49.697Z,62.68
2019-05-25T21:11:19.860Z,62.53
2019-05-25T21:13:49.891Z,62.77
2019-05-25T21:16:19.629Z,63.41
2019-05-25T21:18:50.592Z,62.90
2019-05-25T21:21:20.199Z,63.64
2019-05-25T21:23:49.777Z,64.44
2019-05-25T21:26:19.383Z,64.52
2019-05-25T21:28:49.364Z,64.57
2019-05-25T21:31:19.246Z,64.30
2019-05-25T21:33:50.108Z,64.25
2019-05-25T21:36:22.894Z,63.60
2019-05-25T21:38:52.510Z,64.12
2019-05-25T21:41:22.287Z,63.89
2019-05-25T21:43:52.133Z,64.07
2019-05-25T21:46:22.297Z,64.48
2019-05-25T21:48:54.790Z,64.97
2019-05-25T21:51:24.610Z,65.17
2019-05-25T21:53:54.124Z,65.27
2019-05-25T21:56:23.787Z,65.83
2019-05-25T21:58:53.401Z,65.18
2019-05-25T22:01:23.569Z,65.46
2019-05-25T22:03:53.246Z,66.10
2019-05-25T22:06:24.570Z,66.17
2019-05-25T22:08:54.245Z,66.21
2019-05-25T22:11:24.063Z,66.08
2019-05-25T22:13:55.414Z,66.65
2019-05-25T22:16:26.802Z,66.86
2019-05-25T22:18:56.456Z,67.34
2019-05-25T22:21:27.234Z,67.71
2019-05-25T22:23:56.841Z,68.27
2019-05-25T22:26:28.526Z,67.92
2019-05-25T22:28:58.139Z,68.12
2019-05-25T22:31:27.742Z,67.75
2019-05-25T22:33:59.374Z,67.50
2019-05-25T22:36:40.429Z,69.00
2019-05-25T22:39:08.730Z,68.81
2019-05-25T22:41:38.429Z,69.12
2019-05-25T22:44:08.222Z,69.42
2019-05-25T22:46:37.903Z,69.55
2019-05-25T22:49:07.453Z,69.63
2019-05-25T22:51:36.966Z,70.29
2019-05-25T22:54:06.665Z,70.82
2019-05-25T22:56:36.258Z,71.23
2019-05-25T22:59:05.832Z,71.29
2019-05-25T23:01:35.474Z,72.39
2019-05-25T23:04:05.060Z,72.46
2019-05-25T23:06:34.716Z,72.37
2019-05-25T23:09:07.210Z,72.45
2019-05-25T23:11:36.826Z,72.13
2019-05-25T23:14:09.690Z,71.92
2019-05-25T23:16:37.893Z,71.91
2019-05-25T23:19:07.466Z,71.44
2019-05-25T23:21:37.064Z,71.29
2019-05-25T23:24:06.707Z,71.49
2019-05-25T23:26:36.295Z,70.68
2019-05-25T23:29:05.960Z,71.24
2019-05-25T23:31:35.972Z,71.21
2019-05-25T23:34:05.625Z,71.44
2019-05-25T23:36:35.211Z,71.79
2019-05-25T23:39:06.433Z,72.03
2019-05-25T23:41:36.510Z,72.01
2019-05-25T23:44:06.089Z,72.49
2019-05-25T23:46:35.739Z,71.29
2019-05-25T23:49:05.315Z,71.22
2019-05-25T23:51:34.904Z,70.62
2019-05-25T23:54:04.740Z,70.59
2019-05-25T23:56:35.916Z,70.49
2019-05-25T23:59:05.429Z,70.68
